sensor_id;sensor_type;location;lat;lon;timestamp;P1;durP1;ratioP1;P2;durP2;ratioP2
3259;SDS011;22469;48.150;14.004;2023-02-15T00:00:05;47.67;;;22.00;;
3259;SDS011;22469;48.150;14.004;2023-02-15T00:02:37;74.50;;;23.67;;
3259;SDS011;22469;48.150;14.004;2023-02-15T00:05:05;56.27;;;22.00;;
3259;SDS011;22469;48.150;14.004;2023-02-15T00:07:33;39.53;;;21.37;;
3259;SDS011;22469;48.150;14.004;2023-02-15T00:10:00;43.07;;;23.30;;
3259;SDS011;22469;48.150;14.004;2023-02-15T00:12:27;48.60;;;24.50;;
3259;SDS011;22469;48.150;14.004;2023-02-15T00:14:54;40.20;;;21.70;;
3259;SDS011;22469;48.150;14.004;2023-02-15T00:17:21;50.93;;;23.77;;
3259;SDS011;22469;48.150;14.004;2023-02-15T00:19:48;50.67;;;21.30;;
3259;SDS011;22469;48.150;14.004;2023-02-15T00:22:15;39.13;;;19.57;;
3259;SDS011;22469;48.150;14.004;2023-02-15T00:24:42;50.63;;;22.60;;
3259;SDS011;22469;48.150;14.004;2023-02-15T00:27:08;42.90;;;22.57;;
3259;SDS011;22469;48.150;14.004;2023-02-15T00:29:36;38.00;;;20.30;;
3259;SDS011;22469;48.150;14.004;2023-02-15T00:32:03;40.70;;;20.67;;
3259;SDS011;22469;48.150;14.004;2023-02-15T00:34:30;44.30;;;24.40;;
3259;SDS011;22469;48.150;14.004;2023-02-15T00:36:57;42.60;;;21.70;;
3259;SDS011;22469;48.150;14.004;2023-02-15T00:39:24;53.10;;;22.80;;
3259;SDS011;22469;48.150;14.004;2023-02-15T00:41:51;50.30;;;22.80;;
3259;SDS011;22469;48.150;14.004;2023-02-15T00:44:18;46.43;;;21.30;;
3259;SDS011;22469;48.150;14.004;2023-02-15T00:46:46;44.20;;;21.50;;
3259;SDS011;22469;48.150;14.004;2023-02-15T00:49:13;44.30;;;21.37;;
3259;SDS011;22469;48.150;14.004;2023-02-15T00:51:41;43.23;;;22.03;;
3259;SDS011;22469;48.150;14.004;2023-02-15T00:54:08;44.57;;;21.90;;
3259;SDS011;22469;48.150;14.004;2023-02-15T00:56:35;40.67;;;21.40;;
3259;SDS011;22469;48.150;14.004;2023-02-15T00:59:02;47.03;;;21.07;;
3259;SDS011;22469;48.150;14.004;2023-02-15T01:01:29;52.77;;;24.13;;
3259;SDS011;22469;48.150;14.004;2023-02-15T01:03:56;49.47;;;24.10;;
3259;SDS011;22469;48.150;14.004;2023-02-15T01:06:23;54.53;;;22.40;;
3259;SDS011;22469;48.150;14.004;2023-02-15T01:08:50;48.83;;;23.37;;
3259;SDS011;22469;48.150;14.004;2023-02-15T01:11:18;40.67;;;22.10;;
3259;SDS011;22469;48.150;14.004;2023-02-15T01:13:49;44.07;;;23.83;;
3259;SDS011;22469;48.150;14.004;2023-02-15T01:16:25;57.83;;;24.93;;
3259;SDS011;22469;48.150;14.004;2023-02-15T01:18:55;51.30;;;21.63;;
3259;SDS011;22469;48.150;14.004;2023-02-15T01:21:23;41.50;;;21.07;;
3259;SDS011;22469;48.150;14.004;2023-02-15T01:23:52;51.33;;;21.97;;
3259;SDS011;22469;48.150;14.004;2023-02-15T01:26:19;40.13;;;20.33;;
3259;SDS011;22469;48.150;14.004;2023-02-15T01:28:46;37.60;;;19.20;;
3259;SDS011;22469;48.150;14.004;2023-02-15T01:31:14;44.13;;;20.93;;
3259;SDS011;22469;48.150;14.004;2023-02-15T01:33:46;53.03;;;20.77;;
3259;SDS011;22469;48.150;14.004;2023-02-15T01:36:14;40.23;;;19.67;;
3259;SDS011;22469;48.150;14.004;2023-02-15T01:38:43;37.13;;;18.50;;
3259;SDS011;22469;48.150;14.004;2023-02-15T01:41:10;42.70;;;20.17;;
3259;SDS011;22469;48.150;14.004;2023-02-15T01:43:57;49.67;;;20.47;;
3259;SDS011;22469;48.150;14.004;2023-02-15T01:46:40;40.10;;;18.83;;
3259;SDS011;22469;48.150;14.004;2023-02-15T01:49:19;42.23;;;18.50;;
3259;SDS011;22469;48.150;14.004;2023-02-15T01:51:51;40.57;;;19.90;;
3259;SDS011;22469;48.150;14.004;2023-02-15T01:54:26;43.30;;;20.20;;
3259;SDS011;22469;48.150;14.004;2023-02-15T01:57:00;50.13;;;21.43;;
3259;SDS011;22469;48.150;14.004;2023-02-15T01:59:32;45.73;;;23.10;;
3259;SDS011;22469;48.150;14.004;2023-02-15T02:02:02;59.70;;;22.67;;
3259;SDS011;22469;48.150;14.004;2023-02-15T02:04:35;43.40;;;20.67;;
3259;SDS011;22469;48.150;14.004;2023-02-15T02:07:10;41.00;;;21.17;;
3259;SDS011;22469;48.150;14.004;2023-02-15T02:09:41;49.17;;;22.50;;
3259;SDS011;22469;48.150;14.004;2023-02-15T02:12:08;57.47;;;20.73;;
3259;SDS011;22469;48.150;14.004;2023-02-15T02:14:36;45.60;;;21.60;;
3259;SDS011;22469;48.150;14.004;2023-02-15T02:38:11;43.23;;;19.63;;
3259;SDS011;22469;48.150;14.004;2023-02-15T02:43:59;59.07;;;21.60;;
3259;SDS011;22469;48.150;14.004;2023-02-15T02:46:41;55.80;;;21.67;;
3259;SDS011;22469;48.150;14.004;2023-02-15T02:49:30;41.77;;;18.30;;
3259;SDS011;22469;48.150;14.004;2023-02-15T02:52:04;43.33;;;18.40;;
3259;SDS011;22469;48.150;14.004;2023-02-15T02:54:51;50.40;;;20.87;;
3259;SDS011;22469;48.150;14.004;2023-02-15T02:57:20;48.07;;;20.33;;
3259;SDS011;22469;48.150;14.004;2023-02-15T02:59:50;40.57;;;18.47;;
3259;SDS011;22469;48.150;14.004;2023-02-15T03:02:21;47.87;;;18.80;;
3259;SDS011;22469;48.150;14.004;2023-02-15T03:04:56;44.80;;;19.03;;
3259;SDS011;22469;48.150;14.004;2023-02-15T03:07:30;42.33;;;19.47;;
3259;SDS011;22469;48.150;14.004;2023-02-15T03:10:03;54.47;;;20.93;;
3259;SDS011;22469;48.150;14.004;2023-02-15T03:12:36;40.27;;;18.23;;
3259;SDS011;22469;48.150;14.004;2023-02-15T03:18:20;61.00;;;20.87;;
3259;SDS011;22469;48.150;14.004;2023-02-15T03:20:52;48.93;;;17.87;;
3259;SDS011;22469;48.150;14.004;2023-02-15T03:23:20;48.00;;;22.13;;
3259;SDS011;22469;48.150;14.004;2023-02-15T03:25:52;38.20;;;16.77;;
3259;SDS011;22469;48.150;14.004;2023-02-15T03:28:29;46.37;;;20.13;;
3259;SDS011;22469;48.150;14.004;2023-02-15T03:31:07;53.17;;;20.13;;
3259;SDS011;22469;48.150;14.004;2023-02-15T03:33:40;44.70;;;17.60;;
3259;SDS011;22469;48.150;14.004;2023-02-15T03:36:21;42.73;;;17.53;;
3259;SDS011;22469;48.150;14.004;2023-02-15T03:39:00;38.50;;;17.50;;
3259;SDS011;22469;48.150;14.004;2023-02-15T03:47:47;48.03;;;19.60;;
3259;SDS011;22469;48.150;14.004;2023-02-15T03:50:21;38.73;;;18.13;;
3259;SDS011;22469;48.150;14.004;2023-02-15T03:53:13;44.03;;;19.07;;
3259;SDS011;22469;48.150;14.004;2023-02-15T03:55:52;41.80;;;17.70;;
3259;SDS011;22469;48.150;14.004;2023-02-15T03:58:21;50.13;;;18.10;;
3259;SDS011;22469;48.150;14.004;2023-02-15T04:01:11;39.50;;;19.10;;
3259;SDS011;22469;48.150;14.004;2023-02-15T04:04:15;38.93;;;17.50;;
3259;SDS011;22469;48.150;14.004;2023-02-15T04:06:46;42.17;;;18.30;;
3259;SDS011;22469;48.150;14.004;2023-02-15T04:09:13;36.13;;;17.10;;
3259;SDS011;22469;48.150;14.004;2023-02-15T04:11:58;49.30;;;18.37;;
3259;SDS011;22469;48.150;14.004;2023-02-15T04:14:25;45.10;;;18.10;;
3259;SDS011;22469;48.150;14.004;2023-02-15T04:17:11;48.87;;;17.30;;
3259;SDS011;22469;48.150;14.004;2023-02-15T04:19:38;41.60;;;18.80;;
3259;SDS011;22469;48.150;14.004;2023-02-15T04:22:23;42.03;;;19.30;;
3259;SDS011;22469;48.150;14.004;2023-02-15T04:25:09;56.10;;;21.40;;
3259;SDS011;22469;48.150;14.004;2023-02-15T04:27:40;43.93;;;19.43;;
3259;SDS011;22469;48.150;14.004;2023-02-15T04:30:11;46.50;;;20.17;;
3259;SDS011;22469;48.150;14.004;2023-02-15T04:32:40;45.17;;;19.00;;
3259;SDS011;22469;48.150;14.004;2023-02-15T04:35:08;47.20;;;19.00;;
3259;SDS011;22469;48.150;14.004;2023-02-15T04:37:35;45.77;;;20.27;;
3259;SDS011;22469;48.150;14.004;2023-02-15T04:40:03;41.10;;;16.53;;
3259;SDS011;22469;48.150;14.004;2023-02-15T04:42:32;46.07;;;18.00;;
3259;SDS011;22469;48.150;14.004;2023-02-15T04:44:59;41.23;;;18.30;;
3259;SDS011;22469;48.150;14.004;2023-02-15T04:47:26;47.03;;;17.20;;
3259;SDS011;22469;48.150;14.004;2023-02-15T04:49:53;42.33;;;17.40;;
3259;SDS011;22469;48.150;14.004;2023-02-15T04:52:23;44.37;;;16.07;;
3259;SDS011;22469;48.150;14.004;2023-02-15T04:54:50;51.67;;;19.47;;
3259;SDS011;22469;48.150;14.004;2023-02-15T04:57:17;48.13;;;17.80;;
3259;SDS011;22469;48.150;14.004;2023-02-15T04:59:44;55.53;;;21.97;;
3259;SDS011;22469;48.150;14.004;2023-02-15T05:02:11;52.20;;;19.37;;
3259;SDS011;22469;48.150;14.004;2023-02-15T05:04:38;44.53;;;19.40;;
3259;SDS011;22469;48.150;14.004;2023-02-15T05:07:05;38.73;;;19.37;;
3259;SDS011;22469;48.150;14.004;2023-02-15T05:09:32;46.27;;;18.73;;
3259;SDS011;22469;48.150;14.004;2023-02-15T05:11:59;54.03;;;19.77;;
3259;SDS011;22469;48.150;14.004;2023-02-15T05:14:26;51.67;;;19.90;;
3259;SDS011;22469;48.150;14.004;2023-02-15T05:16:53;46.37;;;18.20;;
3259;SDS011;22469;48.150;14.004;2023-02-15T05:19:20;42.23;;;20.30;;
3259;SDS011;22469;48.150;14.004;2023-02-15T05:21:49;48.53;;;19.40;;
3259;SDS011;22469;48.150;14.004;2023-02-15T05:24:16;49.33;;;20.37;;
3259;SDS011;22469;48.150;14.004;2023-02-15T05:27:04;46.90;;;18.50;;
3259;SDS011;22469;48.150;14.004;2023-02-15T05:29:50;50.53;;;18.03;;
3259;SDS011;22469;48.150;14.004;2023-02-15T05:32:17;50.73;;;18.47;;
3259;SDS011;22469;48.150;14.004;2023-02-15T05:34:44;56.10;;;21.80;;
3259;SDS011;22469;48.150;14.004;2023-02-15T05:37:11;53.73;;;20.87;;
3259;SDS011;22469;48.150;14.004;2023-02-15T05:39:38;47.03;;;18.70;;
3259;SDS011;22469;48.150;14.004;2023-02-15T05:42:05;56.20;;;19.27;;
3259;SDS011;22469;48.150;14.004;2023-02-15T05:44:32;49.63;;;20.50;;
3259;SDS011;22469;48.150;14.004;2023-02-15T05:46:59;53.73;;;20.27;;
3259;SDS011;22469;48.150;14.004;2023-02-15T05:49:26;41.83;;;18.93;;
3259;SDS011;22469;48.150;14.004;2023-02-15T05:51:53;49.57;;;19.80;;
3259;SDS011;22469;48.150;14.004;2023-02-15T05:54:20;51.07;;;21.93;;
3259;SDS011;22469;48.150;14.004;2023-02-15T05:56:47;53.40;;;20.27;;
3259;SDS011;22469;48.150;14.004;2023-02-15T05:59:14;47.47;;;19.37;;
3259;SDS011;22469;48.150;14.004;2023-02-15T06:01:41;46.13;;;18.57;;
3259;SDS011;22469;48.150;14.004;2023-02-15T06:04:08;53.97;;;19.27;;
3259;SDS011;22469;48.150;14.004;2023-02-15T06:06:35;48.10;;;20.80;;
3259;SDS011;22469;48.150;14.004;2023-02-15T06:09:02;43.70;;;17.80;;
3259;SDS011;22469;48.150;14.004;2023-02-15T06:11:29;50.33;;;20.50;;
3259;SDS011;22469;48.150;14.004;2023-02-15T06:13:56;56.40;;;22.17;;
3259;SDS011;22469;48.150;14.004;2023-02-15T06:16:23;48.43;;;19.97;;
3259;SDS011;22469;48.150;14.004;2023-02-15T06:18:50;51.10;;;22.70;;
3259;SDS011;22469;48.150;14.004;2023-02-15T06:21:19;53.20;;;20.47;;
3259;SDS011;22469;48.150;14.004;2023-02-15T06:23:46;58.33;;;20.80;;
3259;SDS011;22469;48.150;14.004;2023-02-15T06:26:13;47.03;;;21.00;;
3259;SDS011;22469;48.150;14.004;2023-02-15T06:28:40;56.93;;;20.37;;
3259;SDS011;22469;48.150;14.004;2023-02-15T06:31:07;51.73;;;20.40;;
3259;SDS011;22469;48.150;14.004;2023-02-15T06:33:34;43.00;;;19.40;;
3259;SDS011;22469;48.150;14.004;2023-02-15T06:36:02;56.53;;;20.83;;
3259;SDS011;22469;48.150;14.004;2023-02-15T06:38:30;50.00;;;19.67;;
3259;SDS011;22469;48.150;14.004;2023-02-15T06:40:57;48.93;;;21.40;;
3259;SDS011;22469;48.150;14.004;2023-02-15T06:43:24;51.40;;;19.70;;
3259;SDS011;22469;48.150;14.004;2023-02-15T06:45:51;51.33;;;20.33;;
3259;SDS011;22469;48.150;14.004;2023-02-15T06:48:18;46.57;;;20.17;;
3259;SDS011;22469;48.150;14.004;2023-02-15T06:50:45;51.60;;;22.63;;
3259;SDS011;22469;48.150;14.004;2023-02-15T06:53:12;47.23;;;19.97;;
3259;SDS011;22469;48.150;14.004;2023-02-15T06:55:39;50.60;;;19.70;;
3259;SDS011;22469;48.150;14.004;2023-02-15T06:58:06;51.53;;;21.23;;
3259;SDS011;22469;48.150;14.004;2023-02-15T07:00:33;46.43;;;21.53;;
3259;SDS011;22469;48.150;14.004;2023-02-15T07:03:00;48.27;;;21.97;;
3259;SDS011;22469;48.150;14.004;2023-02-15T07:05:28;47.90;;;20.77;;
3259;SDS011;22469;48.150;14.004;2023-02-15T07:07:59;57.10;;;21.60;;
3259;SDS011;22469;48.150;14.004;2023-02-15T07:10:27;48.10;;;20.93;;
3259;SDS011;22469;48.150;14.004;2023-02-15T07:12:55;63.77;;;22.47;;
3259;SDS011;22469;48.150;14.004;2023-02-15T07:15:22;42.33;;;20.70;;
3259;SDS011;22469;48.150;14.004;2023-02-15T07:17:49;54.70;;;24.17;;
3259;SDS011;22469;48.150;14.004;2023-02-15T07:20:20;56.47;;;20.00;;
3259;SDS011;22469;48.150;14.004;2023-02-15T07:22:49;51.70;;;20.87;;
3259;SDS011;22469;48.150;14.004;2023-02-15T07:25:17;48.27;;;20.10;;
3259;SDS011;22469;48.150;14.004;2023-02-15T07:27:45;52.83;;;20.90;;
3259;SDS011;22469;48.150;14.004;2023-02-15T07:30:13;47.20;;;19.20;;
3259;SDS011;22469;48.150;14.004;2023-02-15T07:32:43;45.77;;;20.40;;
3259;SDS011;22469;48.150;14.004;2023-02-15T07:38:56;44.80;;;17.97;;
3259;SDS011;22469;48.150;14.004;2023-02-15T07:41:23;52.07;;;19.70;;
3259;SDS011;22469;48.150;14.004;2023-02-15T07:43:49;43.47;;;20.70;;
3259;SDS011;22469;48.150;14.004;2023-02-15T07:46:16;53.47;;;22.13;;
3259;SDS011;22469;48.150;14.004;2023-02-15T07:48:44;45.30;;;21.20;;
3259;SDS011;22469;48.150;14.004;2023-02-15T07:51:11;40.93;;;19.40;;
3259;SDS011;22469;48.150;14.004;2023-02-15T07:53:41;41.47;;;21.10;;
3259;SDS011;22469;48.150;14.004;2023-02-15T07:56:11;50.50;;;20.13;;
3259;SDS011;22469;48.150;14.004;2023-02-15T07:58:40;52.33;;;21.90;;
3259;SDS011;22469;48.150;14.004;2023-02-15T08:01:22;44.80;;;19.43;;
3259;SDS011;22469;48.150;14.004;2023-02-15T08:04:02;40.00;;;18.17;;
3259;SDS011;22469;48.150;14.004;2023-02-15T08:06:32;44.83;;;19.87;;
3259;SDS011;22469;48.150;14.004;2023-02-15T08:09:03;51.40;;;19.37;;
3259;SDS011;22469;48.150;14.004;2023-02-15T08:11:33;49.37;;;19.97;;
3259;SDS011;22469;48.150;14.004;2023-02-15T08:14:07;45.47;;;18.07;;
3259;SDS011;22469;48.150;14.004;2023-02-15T08:16:48;44.43;;;18.87;;
3259;SDS011;22469;48.150;14.004;2023-02-15T08:19:24;42.23;;;18.50;;
3259;SDS011;22469;48.150;14.004;2023-02-15T08:21:57;43.13;;;19.03;;
3259;SDS011;22469;48.150;14.004;2023-02-15T08:24:33;47.60;;;19.07;;
3259;SDS011;22469;48.150;14.004;2023-02-15T08:27:07;37.27;;;16.37;;
3259;SDS011;22469;48.150;14.004;2023-02-15T08:29:36;41.37;;;16.80;;
3259;SDS011;22469;48.150;14.004;2023-02-15T08:32:06;37.10;;;16.97;;
3259;SDS011;22469;48.150;14.004;2023-02-15T08:34:37;34.17;;;16.80;;
3259;SDS011;22469;48.150;14.004;2023-02-15T08:37:07;42.37;;;18.30;;
3259;SDS011;22469;48.150;14.004;2023-02-15T08:39:34;38.33;;;16.03;;
3259;SDS011;22469;48.150;14.004;2023-02-15T08:42:01;42.53;;;17.30;;
3259;SDS011;22469;48.150;14.004;2023-02-15T08:44:28;49.13;;;20.57;;
3259;SDS011;22469;48.150;14.004;2023-02-15T08:46:56;46.97;;;20.20;;
3259;SDS011;22469;48.150;14.004;2023-02-15T08:49:29;38.83;;;17.40;;
3259;SDS011;22469;48.150;14.004;2023-02-15T08:51:56;42.73;;;18.97;;
3259;SDS011;22469;48.150;14.004;2023-02-15T08:54:23;34.63;;;16.63;;
3259;SDS011;22469;48.150;14.004;2023-02-15T08:56:50;35.03;;;15.93;;
3259;SDS011;22469;48.150;14.004;2023-02-15T08:59:18;38.83;;;17.40;;
3259;SDS011;22469;48.150;14.004;2023-02-15T09:01:49;39.30;;;17.50;;
3259;SDS011;22469;48.150;14.004;2023-02-15T09:04:19;37.20;;;16.60;;
3259;SDS011;22469;48.150;14.004;2023-02-15T09:06:48;27.87;;;15.10;;
3259;SDS011;22469;48.150;14.004;2023-02-15T09:09:16;39.87;;;18.63;;
3259;SDS011;22469;48.150;14.004;2023-02-15T09:11:46;26.40;;;14.50;;
3259;SDS011;22469;48.150;14.004;2023-02-15T09:14:21;29.90;;;14.77;;
3259;SDS011;22469;48.150;14.004;2023-02-15T09:16:51;27.20;;;14.40;;
3259;SDS011;22469;48.150;14.004;2023-02-15T09:19:20;29.40;;;14.70;;
3259;SDS011;22469;48.150;14.004;2023-02-15T09:21:48;26.30;;;13.53;;
3259;SDS011;22469;48.150;14.004;2023-02-15T09:24:16;30.53;;;16.10;;
3259;SDS011;22469;48.150;14.004;2023-02-15T09:26:45;29.87;;;14.90;;
3259;SDS011;22469;48.150;14.004;2023-02-15T09:29:15;28.47;;;14.97;;
3259;SDS011;22469;48.150;14.004;2023-02-15T09:31:45;25.93;;;15.90;;
3259;SDS011;22469;48.150;14.004;2023-02-15T09:34:16;32.80;;;15.60;;
3259;SDS011;22469;48.150;14.004;2023-02-15T09:36:47;27.33;;;15.20;;
3259;SDS011;22469;48.150;14.004;2023-02-15T09:39:15;24.20;;;14.33;;
3259;SDS011;22469;48.150;14.004;2023-02-15T09:45:13;27.70;;;14.67;;
3259;SDS011;22469;48.150;14.004;2023-02-15T09:47:56;31.10;;;14.57;;
3259;SDS011;22469;48.150;14.004;2023-02-15T09:53:36;33.37;;;16.47;;
3259;SDS011;22469;48.150;14.004;2023-02-15T09:56:24;28.50;;;14.43;;
3259;SDS011;22469;48.150;14.004;2023-02-15T09:59:23;27.57;;;16.47;;
3259;SDS011;22469;48.150;14.004;2023-02-15T10:11:13;29.37;;;17.27;;
3259;SDS011;22469;48.150;14.004;2023-02-15T10:16:51;34.50;;;16.63;;
3259;SDS011;22469;48.150;14.004;2023-02-15T10:25:15;34.03;;;15.50;;
3259;SDS011;22469;48.150;14.004;2023-02-15T10:28:09;32.23;;;16.50;;
3259;SDS011;22469;48.150;14.004;2023-02-15T10:30:50;26.53;;;15.83;;
3259;SDS011;22469;48.150;14.004;2023-02-15T10:50:52;26.67;;;16.03;;
3259;SDS011;22469;48.150;14.004;2023-02-15T10:56:28;31.07;;;17.17;;
3259;SDS011;22469;48.150;14.004;2023-02-15T11:02:08;31.80;;;14.80;;
3259;SDS011;22469;48.150;14.004;2023-02-15T11:04:51;30.20;;;17.20;;
3259;SDS011;22469;48.150;14.004;2023-02-15T11:07:36;29.67;;;15.00;;
3259;SDS011;22469;48.150;14.004;2023-02-15T11:10:28;26.30;;;14.00;;
3259;SDS011;22469;48.150;14.004;2023-02-15T11:13:12;26.47;;;14.77;;
3259;SDS011;22469;48.150;14.004;2023-02-15T11:15:56;32.57;;;15.83;;
3259;SDS011;22469;48.150;14.004;2023-02-15T11:18:36;24.30;;;14.97;;
3259;SDS011;22469;48.150;14.004;2023-02-15T11:21:13;32.83;;;16.63;;
3259;SDS011;22469;48.150;14.004;2023-02-15T11:23:59;26.67;;;14.77;;
3259;SDS011;22469;48.150;14.004;2023-02-15T11:26:34;31.97;;;16.00;;
3259;SDS011;22469;48.150;14.004;2023-02-15T11:29:23;27.50;;;16.47;;
3259;SDS011;22469;48.150;14.004;2023-02-15T11:42:46;28.40;;;14.33;;
3259;SDS011;22469;48.150;14.004;2023-02-15T11:47:50;35.17;;;18.23;;
3259;SDS011;22469;48.150;14.004;2023-02-15T11:50:19;28.97;;;16.60;;
3259;SDS011;22469;48.150;14.004;2023-02-15T11:53:20;27.47;;;15.37;;
3259;SDS011;22469;48.150;14.004;2023-02-15T11:55:54;27.17;;;15.73;;
3259;SDS011;22469;48.150;14.004;2023-02-15T12:01:28;29.73;;;16.37;;
3259;SDS011;22469;48.150;14.004;2023-02-15T12:07:01;29.80;;;16.80;;
3259;SDS011;22469;48.150;14.004;2023-02-15T12:09:52;31.27;;;17.70;;
3259;SDS011;22469;48.150;14.004;2023-02-15T12:12:31;32.37;;;15.80;;
3259;SDS011;22469;48.150;14.004;2023-02-15T12:15:07;27.63;;;16.57;;
3259;SDS011;22469;48.150;14.004;2023-02-15T12:22:49;30.57;;;17.10;;
3259;SDS011;22469;48.150;14.004;2023-02-15T12:25:40;29.47;;;17.70;;
3259;SDS011;22469;48.150;14.004;2023-02-15T12:31:17;32.53;;;17.43;;
3259;SDS011;22469;48.150;14.004;2023-02-15T12:33:54;28.57;;;17.53;;
3259;SDS011;22469;48.150;14.004;2023-02-15T12:36:25;26.40;;;16.87;;
3259;SDS011;22469;48.150;14.004;2023-02-15T12:39:21;32.37;;;16.67;;
3259;SDS011;22469;48.150;14.004;2023-02-15T12:44:24;35.90;;;17.90;;
3259;SDS011;22469;48.150;14.004;2023-02-15T12:46:59;33.63;;;18.50;;
3259;SDS011;22469;48.150;14.004;2023-02-15T12:49:30;28.40;;;17.00;;
3259;SDS011;22469;48.150;14.004;2023-02-15T12:52:04;33.43;;;18.00;;
3259;SDS011;22469;48.150;14.004;2023-02-15T12:54:46;30.97;;;17.23;;
3259;SDS011;22469;48.150;14.004;2023-02-15T13:07:48;34.27;;;18.97;;
3259;SDS011;22469;48.150;14.004;2023-02-15T13:10:27;38.23;;;20.87;;
3259;SDS011;22469;48.150;14.004;2023-02-15T13:13:08;28.63;;;16.70;;
3259;SDS011;22469;48.150;14.004;2023-02-15T13:15:41;32.53;;;18.73;;
3259;SDS011;22469;48.150;14.004;2023-02-15T13:18:32;35.43;;;20.20;;
3259;SDS011;22469;48.150;14.004;2023-02-15T13:21:11;27.70;;;17.83;;
3259;SDS011;22469;48.150;14.004;2023-02-15T13:23:44;32.40;;;19.70;;
3259;SDS011;22469;48.150;14.004;2023-02-15T13:26:16;34.57;;;18.53;;
3259;SDS011;22469;48.150;14.004;2023-02-15T13:28:48;38.10;;;21.37;;
3259;SDS011;22469;48.150;14.004;2023-02-15T13:31:22;35.70;;;20.47;;
3259;SDS011;22469;48.150;14.004;2023-02-15T13:33:56;33.20;;;17.67;;
3259;SDS011;22469;48.150;14.004;2023-02-15T13:37:06;34.63;;;18.57;;
3259;SDS011;22469;48.150;14.004;2023-02-15T13:39:47;33.87;;;18.00;;
3259;SDS011;22469;48.150;14.004;2023-02-15T13:42:39;35.03;;;20.10;;
3259;SDS011;22469;48.150;14.004;2023-02-15T13:57:19;34.70;;;19.90;;
3259;SDS011;22469;48.150;14.004;2023-02-15T14:03:28;36.23;;;20.47;;
3259;SDS011;22469;48.150;14.004;2023-02-15T14:16:00;27.13;;;16.43;;
3259;SDS011;22469;48.150;14.004;2023-02-15T14:18:48;26.43;;;16.37;;
3259;SDS011;22469;48.150;14.004;2023-02-15T14:22:10;30.00;;;17.40;;
3259;SDS011;22469;48.150;14.004;2023-02-15T14:30:25;35.40;;;17.70;;
3259;SDS011;22469;48.150;14.004;2023-02-15T14:33:12;39.13;;;20.00;;
3259;SDS011;22469;48.150;14.004;2023-02-15T14:35:42;37.93;;;20.23;;
3259;SDS011;22469;48.150;14.004;2023-02-15T14:40:59;34.00;;;18.07;;
3259;SDS011;22469;48.150;14.004;2023-02-15T14:49:19;44.97;;;25.40;;
3259;SDS011;22469;48.150;14.004;2023-02-15T14:51:54;44.77;;;25.97;;
3259;SDS011;22469;48.150;14.004;2023-02-15T15:05:02;35.10;;;22.37;;
3259;SDS011;22469;48.150;14.004;2023-02-15T15:07:56;38.33;;;23.40;;
3259;SDS011;22469;48.150;14.004;2023-02-15T15:10:34;44.13;;;24.83;;
3259;SDS011;22469;48.150;14.004;2023-02-15T15:19:04;38.37;;;19.60;;
3259;SDS011;22469;48.150;14.004;2023-02-15T15:49:08;45.70;;;23.63;;
3259;SDS011;22469;48.150;14.004;2023-02-15T15:51:42;42.27;;;21.77;;
3259;SDS011;22469;48.150;14.004;2023-02-15T15:54:16;45.60;;;24.00;;
3259;SDS011;22469;48.150;14.004;2023-02-15T15:56:50;47.90;;;22.30;;
3259;SDS011;22469;48.150;14.004;2023-02-15T15:59:29;41.33;;;22.00;;
3259;SDS011;22469;48.150;14.004;2023-02-15T16:02:04;45.67;;;21.47;;
3259;SDS011;22469;48.150;14.004;2023-02-15T16:04:34;45.60;;;27.47;;
3259;SDS011;22469;48.150;14.004;2023-02-15T16:09:57;47.97;;;25.70;;
3259;SDS011;22469;48.150;14.004;2023-02-15T16:12:35;64.60;;;34.30;;
3259;SDS011;22469;48.150;14.004;2023-02-15T16:18:16;50.37;;;24.43;;
3259;SDS011;22469;48.150;14.004;2023-02-15T16:20:51;46.73;;;22.80;;
3259;SDS011;22469;48.150;14.004;2023-02-15T16:29:35;46.50;;;23.77;;
3259;SDS011;22469;48.150;14.004;2023-02-15T16:32:24;45.00;;;25.17;;
3259;SDS011;22469;48.150;14.004;2023-02-15T16:34:59;48.83;;;24.00;;
3259;SDS011;22469;48.150;14.004;2023-02-15T16:37:33;54.57;;;26.13;;
3259;SDS011;22469;48.150;14.004;2023-02-15T16:40:01;40.07;;;23.70;;
3259;SDS011;22469;48.150;14.004;2023-02-15T16:42:28;45.87;;;22.10;;
3259;SDS011;22469;48.150;14.004;2023-02-15T16:47:44;49.17;;;26.60;;
3259;SDS011;22469;48.150;14.004;2023-02-15T16:50:20;40.53;;;22.00;;
3259;SDS011;22469;48.150;14.004;2023-02-15T16:53:03;42.87;;;24.83;;
3259;SDS011;22469;48.150;14.004;2023-02-15T16:55:38;50.30;;;23.33;;
3259;SDS011;22469;48.150;14.004;2023-02-15T16:58:12;45.80;;;24.07;;
3259;SDS011;22469;48.150;14.004;2023-02-15T17:00:42;49.83;;;25.53;;
3259;SDS011;22469;48.150;14.004;2023-02-15T17:05:45;47.07;;;23.13;;
3259;SDS011;22469;48.150;14.004;2023-02-15T17:08:26;45.60;;;23.37;;
3259;SDS011;22469;48.150;14.004;2023-02-15T17:11:21;52.57;;;23.70;;
3259;SDS011;22469;48.150;14.004;2023-02-15T17:19:01;47.40;;;25.43;;
3259;SDS011;22469;48.150;14.004;2023-02-15T17:21:40;45.27;;;22.80;;
3259;SDS011;22469;48.150;14.004;2023-02-15T17:24:20;51.27;;;22.70;;
3259;SDS011;22469;48.150;14.004;2023-02-15T17:27:24;47.83;;;25.40;;
3259;SDS011;22469;48.150;14.004;2023-02-15T17:29:59;51.83;;;25.33;;
3259;SDS011;22469;48.150;14.004;2023-02-15T17:32:42;54.20;;;27.07;;
3259;SDS011;22469;48.150;14.004;2023-02-15T17:35:28;45.63;;;25.90;;
3259;SDS011;22469;48.150;14.004;2023-02-15T17:38:01;56.27;;;27.97;;
3259;SDS011;22469;48.150;14.004;2023-02-15T17:40:45;54.50;;;29.07;;
3259;SDS011;22469;48.150;14.004;2023-02-15T17:43:12;48.03;;;24.97;;
3259;SDS011;22469;48.150;14.004;2023-02-15T17:45:40;53.63;;;23.77;;
3259;SDS011;22469;48.150;14.004;2023-02-15T17:48:20;50.37;;;25.23;;
3259;SDS011;22469;48.150;14.004;2023-02-15T17:51:11;50.40;;;25.93;;
3259;SDS011;22469;48.150;14.004;2023-02-15T17:53:40;55.00;;;26.40;;
3259;SDS011;22469;48.150;14.004;2023-02-15T17:56:27;58.43;;;26.87;;
3259;SDS011;22469;48.150;14.004;2023-02-15T17:58:54;54.33;;;26.40;;
3259;SDS011;22469;48.150;14.004;2023-02-15T18:01:21;52.77;;;26.70;;
3259;SDS011;22469;48.150;14.004;2023-02-15T18:04:08;54.80;;;26.47;;
3259;SDS011;22469;48.150;14.004;2023-02-15T18:06:57;48.47;;;25.33;;
3259;SDS011;22469;48.150;14.004;2023-02-15T18:09:44;57.23;;;24.57;;
3259;SDS011;22469;48.150;14.004;2023-02-15T18:12:30;54.27;;;25.77;;
3259;SDS011;22469;48.150;14.004;2023-02-15T18:15:00;61.10;;;26.17;;
3259;SDS011;22469;48.150;14.004;2023-02-15T18:22:46;52.23;;;22.97;;
3259;SDS011;22469;48.150;14.004;2023-02-15T18:25:14;57.27;;;27.30;;
3259;SDS011;22469;48.150;14.004;2023-02-15T18:27:44;52.03;;;27.53;;
3259;SDS011;22469;48.150;14.004;2023-02-15T18:30:16;61.33;;;31.80;;
3259;SDS011;22469;48.150;14.004;2023-02-15T18:32:47;48.30;;;22.30;;
3259;SDS011;22469;48.150;14.004;2023-02-15T18:35:19;50.33;;;23.03;;
3259;SDS011;22469;48.150;14.004;2023-02-15T18:37:49;47.70;;;25.20;;
3259;SDS011;22469;48.150;14.004;2023-02-15T18:40:19;46.10;;;23.70;;
3259;SDS011;22469;48.150;14.004;2023-02-15T18:42:48;54.60;;;22.10;;
3259;SDS011;22469;48.150;14.004;2023-02-15T18:45:26;53.63;;;24.30;;
3259;SDS011;22469;48.150;14.004;2023-02-15T18:47:58;47.13;;;23.77;;
3259;SDS011;22469;48.150;14.004;2023-02-15T18:50:26;49.67;;;26.83;;
3259;SDS011;22469;48.150;14.004;2023-02-15T18:52:59;58.53;;;24.17;;